This is the latest recevied weather packets stored in our database for station/object W1MWS-13. If no packets are shown the sender has not sent any weather packets the latest 10 day(s).
| Time | Temp. | Humidity | Pressure | Rain* | Wind** | Luminosity | Snow |
|---|---|---|---|---|---|---|---|
| 1777517041 | 7.78° C | 99% | 1013 hPa | 0 mm | - | - | - |
| 1777516401 | 7.78° C | 99% | 1013 hPa | 0 mm | - | - | - |
| 1777512196 | 7.78° C | 99% | 1013.4 hPa | 0 mm | - | - | - |
| 1777508608 | 7.78° C | 99% | 1013.5 hPa | 0 mm | - | - | - |
| 1777506806 | 8.33° C | 97% | 1013.5 hPa | 0 mm | - | - | - |
| 1777504697 | 8.89° C | 94% | 1013.7 hPa | 0 mm | - | - | - |
| 1777503806 | 9.44° C | 91% | 1013.7 hPa | 0 mm | - | - | - |
| 1777500513 | 11.11° C | 84% | 1013.5 hPa | 0 mm | - | - | - |
| 1777499311 | 12.22° C | 82% | 1013.5 hPa | 0 mm | - | - | - |
| 1777498396 | 11.67° C | 84% | 1013.5 hPa | 0 mm | - | - | - |
| 1777497796 | 12.22° C | 83% | 1013.4 hPa | 0 mm | - | - | - |
| 1777497505 | 12.22° C | 83% | 1013.4 hPa | 0 mm | - | - | - |
| 1777492402 | 14.44° C | 76% | 1014.2 hPa | 0 mm | - | - | - |
| 1777490905 | 15° C | 75% | 1014.2 hPa | 0 mm | - | - | - |
| 1777488198 | 16.11° C | 72% | 1014.9 hPa | 0 mm | - | - | - |
| 1777485533 | 16.11° C | 72% | 1015.2 hPa | 0 mm | - | - | - |
| 1777485224 | 16.11° C | 71% | 1015.2 hPa | 0 mm | - | - | - |
| 1777481598 | 13.89° C | 76% | 1015.9 hPa | 0 mm | - | - | - |
| 1777481308 | 13.33° C | 77% | 1015.9 hPa | 0 mm | - | - | - |
| 1777479502 | 12.78° C | 79% | 1016.1 hPa | 0 mm | - | - | - |
| 1777478897 | 12.78° C | 80% | 1016.1 hPa | 0 mm | - | - | - |
| 1777477698 | 12.22° C | 81% | 1016.4 hPa | 0 mm | - | - | - |
| 1777476813 | 11.67° C | 83% | 1016.7 hPa | 0 mm | - | - | - |
| 1777474412 | 11.67° C | 83% | 1017.6 hPa | 0 mm | - | - | - |
| 1777473211 | 11.67° C | 83% | 1018.2 hPa | 0 mm | - | - | - |
* Rain latest hour (hover to see other rain measurements)
** Current wind speed in m/s (hover to see current wind gust speed)